createdAt,value
2018-01-29T00:00:48.320Z,100.00
2018-01-29T00:01:52.927Z,100.00
2018-01-29T00:02:57.506Z,100.00
2018-01-29T00:04:02.188Z,100.00
2018-01-29T00:05:07.007Z,100.00
2018-01-29T00:06:11.996Z,100.00
2018-01-29T00:07:16.493Z,100.00
2018-01-29T00:08:21.110Z,100.00
2018-01-29T00:09:26.489Z,100.00
2018-01-29T00:10:31.443Z,100.00
2018-01-29T00:11:36.371Z,100.00
2018-01-29T00:12:41.407Z,100.00
2018-01-29T00:13:45.949Z,100.00
2018-01-29T00:14:50.519Z,100.00
2018-01-29T00:15:55.057Z,100.00
2018-01-29T00:16:59.783Z,100.00
2018-01-29T00:18:04.527Z,100.00
2018-01-29T00:19:09.713Z,100.00
2018-01-29T00:20:14.403Z,100.00
2018-01-29T00:21:19.133Z,100.00
2018-01-29T00:22:23.952Z,100.00
2018-01-29T00:23:28.638Z,100.00
2018-01-29T00:24:33.321Z,100.00
2018-01-29T00:25:38.384Z,100.00
2018-01-29T00:26:43.066Z,100.00
2018-01-29T00:27:47.782Z,100.00
2018-01-29T00:28:52.592Z,100.00
2018-01-29T00:29:57.291Z,100.00
2018-01-29T00:31:01.989Z,100.00
2018-01-29T00:32:07.090Z,100.00
2018-01-29T00:33:11.852Z,100.00
2018-01-29T00:34:16.582Z,100.00
2018-01-29T00:35:21.243Z,100.00
2018-01-29T00:36:25.942Z,100.00
2018-01-29T00:37:30.613Z,100.00
2018-01-29T00:38:35.759Z,100.00
2018-01-29T00:39:40.476Z,100.00
2018-01-29T00:40:45.182Z,100.00
2018-01-29T00:41:49.869Z,100.00
2018-01-29T00:42:54.533Z,100.00
2018-01-29T00:43:59.241Z,100.00
2018-01-29T00:45:04.328Z,100.00
2018-01-29T00:46:09.017Z,100.00
2018-01-29T00:47:13.745Z,100.00
2018-01-29T00:48:18.463Z,100.00
2018-01-29T00:49:23.152Z,100.00
2018-01-29T00:50:27.896Z,100.00
2018-01-29T00:51:33.102Z,100.00
2018-01-29T00:52:37.789Z,100.00
2018-01-29T00:53:42.498Z,100.00
2018-01-29T00:54:47.168Z,100.00
2018-01-29T00:55:52.031Z,100.00
2018-01-29T00:56:56.687Z,100.00
2018-01-29T00:58:01.693Z,100.00
2018-01-29T00:59:06.420Z,100.00
2018-01-29T01:00:11.122Z,100.00
2018-01-29T01:01:15.825Z,100.00
2018-01-29T01:02:20.502Z,100.00
2018-01-29T01:03:25.225Z,100.00
2018-01-29T01:04:30.393Z,100.00
2018-01-29T01:05:35.148Z,100.00
2018-01-29T01:06:39.870Z,100.00
2018-01-29T01:07:44.536Z,100.00
2018-01-29T01:08:49.210Z,100.00
2018-01-29T01:09:53.921Z,100.00
2018-01-29T01:10:58.887Z,100.00
2018-01-29T01:12:03.798Z,100.00
2018-01-29T01:13:08.456Z,100.00
2018-01-29T01:14:13.178Z,100.00
2018-01-29T01:15:18.037Z,100.00
2018-01-29T01:16:22.740Z,100.00
2018-01-29T01:17:27.813Z,100.00
2018-01-29T01:18:32.508Z,100.00
2018-01-29T01:19:37.217Z,100.00
2018-01-29T01:20:41.947Z,100.00
2018-01-29T01:21:46.681Z,100.00
2018-01-29T01:22:51.437Z,100.00
2018-01-29T01:23:56.460Z,100.00
2018-01-29T01:25:01.161Z,100.00
2018-01-29T01:26:05.882Z,100.00
2018-01-29T01:27:10.568Z,100.00
2018-01-29T01:28:15.326Z,100.00
2018-01-29T01:29:20.065Z,100.00
2018-01-29T01:30:25.140Z,100.00
2018-01-29T01:31:29.835Z,100.00
2018-01-29T01:32:34.474Z,100.00
2018-01-29T01:33:39.083Z,100.00
2018-01-29T01:34:43.701Z,100.00
2018-01-29T01:35:48.410Z,100.00
2018-01-29T01:36:53.387Z,100.00
2018-01-29T01:37:58.000Z,100.00
2018-01-29T01:39:02.615Z,100.00
2018-01-29T01:40:07.263Z,100.00
2018-01-29T01:41:11.970Z,100.00
2018-01-29T01:42:16.576Z,100.00
2018-01-29T01:43:21.649Z,100.00
2018-01-29T01:44:26.258Z,100.00
2018-01-29T01:45:30.927Z,100.00
2018-01-29T01:46:35.610Z,100.00
2018-01-29T01:47:40.211Z,100.00
2018-01-29T01:48:44.838Z,100.00
2018-01-29T01:49:49.739Z,100.00
2018-01-29T01:50:54.378Z,100.00
2018-01-29T01:51:58.979Z,100.00
2018-01-29T01:53:03.600Z,100.00
2018-01-29T01:54:08.291Z,100.00
2018-01-29T01:55:12.902Z,100.00
2018-01-29T01:56:17.846Z,100.00
2018-01-29T01:57:22.478Z,100.00
2018-01-29T01:58:27.074Z,100.00
2018-01-29T01:59:31.686Z,100.00
2018-01-29T02:00:36.320Z,100.00
2018-01-29T02:01:40.955Z,100.00
2018-01-29T02:02:45.936Z,100.00
2018-01-29T02:03:50.581Z,100.00
2018-01-29T02:04:55.178Z,100.00
2018-01-29T02:05:59.773Z,100.00
2018-01-29T02:07:04.438Z,100.00
2018-01-29T02:08:09.148Z,100.00
2018-01-29T02:09:14.234Z,100.00
2018-01-29T02:10:18.952Z,100.00
2018-01-29T02:11:23.579Z,100.00
2018-01-29T02:12:28.168Z,100.00
2018-01-29T02:13:32.815Z,100.00
2018-01-29T02:14:37.439Z,100.00
2018-01-29T02:15:43.077Z,100.00
2018-01-29T02:16:47.605Z,100.00
2018-01-29T02:17:52.237Z,100.00
2018-01-29T02:18:56.839Z,100.00
2018-01-29T02:20:01.448Z,100.00
2018-01-29T02:21:06.037Z,100.00
2018-01-29T02:22:11.026Z,100.00
2018-01-29T02:23:15.759Z,100.00
2018-01-29T02:24:20.378Z,100.00
2018-01-29T02:25:24.941Z,100.00
2018-01-29T02:26:29.607Z,100.00
2018-01-29T02:27:34.327Z,100.00
2018-01-29T02:28:39.467Z,100.00
2018-01-29T02:29:44.163Z,100.00
2018-01-29T02:30:48.874Z,100.00
2018-01-29T02:31:53.509Z,100.00
2018-01-29T02:32:58.119Z,100.00
2018-01-29T02:34:02.732Z,100.00
2018-01-29T02:35:07.667Z,100.00
2018-01-29T02:36:18.259Z,100.00
2018-01-29T02:37:23.024Z,100.00
2018-01-29T02:38:27.682Z,100.00
2018-01-29T02:39:32.748Z,100.00
2018-01-29T02:40:37.878Z,100.00
2018-01-29T02:41:43.069Z,100.00
2018-01-29T02:42:47.647Z,100.00
2018-01-29T02:43:52.331Z,100.00
2018-01-29T02:44:57.111Z,100.00
2018-01-29T02:46:01.963Z,100.00
2018-01-29T02:47:07.012Z,100.00
2018-01-29T02:48:11.765Z,100.00
2018-01-29T02:49:16.518Z,100.00
2018-01-29T02:50:21.352Z,100.00
2018-01-29T02:51:26.250Z,100.00
2018-01-29T02:52:31.114Z,100.00
2018-01-29T02:53:36.525Z,100.00
2018-01-29T02:54:41.375Z,100.00
2018-01-29T02:55:46.241Z,100.00
2018-01-29T02:56:51.052Z,100.00
2018-01-29T02:57:55.844Z,100.00
2018-01-29T02:59:00.678Z,100.00
2018-01-29T03:00:05.988Z,100.00
2018-01-29T03:01:10.765Z,100.00
2018-01-29T03:02:15.463Z,100.00
2018-01-29T03:03:20.234Z,100.00
2018-01-29T03:04:24.818Z,100.00
2018-01-29T03:05:29.365Z,100.00
2018-01-29T03:06:34.391Z,100.00
2018-01-29T03:07:38.923Z,100.00
2018-01-29T03:08:43.419Z,100.00
2018-01-29T03:09:47.926Z,100.00
2018-01-29T03:10:52.491Z,100.00
2018-01-29T03:11:57.129Z,100.00
2018-01-29T03:13:02.070Z,100.00
2018-01-29T03:14:06.586Z,100.00
2018-01-29T03:15:11.399Z,100.00
2018-01-29T03:16:15.923Z,100.00
2018-01-29T03:17:20.423Z,100.00
2018-01-29T03:18:24.950Z,100.00
2018-01-29T03:19:30.081Z,100.00
2018-01-29T03:20:34.796Z,100.00
2018-01-29T03:21:39.451Z,100.00
2018-01-29T03:22:44.133Z,100.00
2018-01-29T03:23:48.868Z,100.00
2018-01-29T03:24:53.546Z,100.00
2018-01-29T03:25:58.816Z,100.00
2018-01-29T03:27:03.427Z,100.00
2018-01-29T03:28:08.318Z,100.00
2018-01-29T03:29:12.917Z,100.00
2018-01-29T03:30:17.876Z,100.00
2018-01-29T03:31:22.443Z,100.00
2018-01-29T03:32:27.500Z,100.00
2018-01-29T03:33:32.097Z,100.00
2018-01-29T03:34:36.771Z,100.00
2018-01-29T03:35:41.454Z,100.00
2018-01-29T03:36:46.347Z,100.00
2018-01-29T03:37:51.354Z,100.00
2018-01-29T03:38:56.592Z,100.00
2018-01-29T03:40:01.393Z,100.00
2018-01-29T03:41:06.140Z,100.00
2018-01-29T03:42:10.869Z,100.00
2018-01-29T03:43:15.641Z,100.00
2018-01-29T03:44:20.391Z,100.00
2018-01-29T03:45:25.522Z,100.00
2018-01-29T03:46:30.317Z,100.00
2018-01-29T03:47:35.062Z,100.00
2018-01-29T03:48:39.830Z,100.00
2018-01-29T03:49:44.670Z,100.00
2018-01-29T03:50:49.471Z,100.00
2018-01-29T03:51:54.650Z,100.00
2018-01-29T03:52:59.435Z,100.00
2018-01-29T03:54:04.778Z,100.00
2018-01-29T03:55:09.530Z,100.00
2018-01-29T03:56:14.255Z,100.00
2018-01-29T03:57:19.078Z,100.00
2018-01-29T03:58:24.136Z,100.00
2018-01-29T03:59:28.900Z,100.00
2018-01-29T04:00:33.599Z,100.00
2018-01-29T04:01:38.306Z,100.00
2018-01-29T04:02:43.057Z,100.00
2018-01-29T04:03:47.792Z,100.00
2018-01-29T04:04:52.886Z,100.00
2018-01-29T04:05:57.630Z,100.00
2018-01-29T04:07:02.366Z,100.00
2018-01-29T04:08:07.165Z,100.00
2018-01-29T04:09:12.029Z,100.00
2018-01-29T04:10:16.750Z,100.00
2018-01-29T04:11:21.941Z,100.00
2018-01-29T04:12:26.683Z,100.00
2018-01-29T04:13:31.426Z,100.00
2018-01-29T04:14:36.165Z,100.00
2018-01-29T04:15:40.918Z,100.00
2018-01-29T04:16:45.681Z,100.00
2018-01-29T04:17:50.917Z,100.00
2018-01-29T04:18:55.621Z,100.00
2018-01-29T04:20:00.344Z,100.00
2018-01-29T04:21:05.103Z,100.00
2018-01-29T04:22:09.885Z,100.00
2018-01-29T04:23:15.069Z,100.00
2018-01-29T04:24:19.808Z,100.00
2018-01-29T04:25:24.474Z,100.00
2018-01-29T04:26:29.145Z,100.00
2018-01-29T04:27:34.004Z,100.00
2018-01-29T04:28:38.818Z,100.00
2018-01-29T04:29:44.007Z,100.00
2018-01-29T04:30:48.765Z,100.00
2018-01-29T04:31:53.518Z,100.00
2018-01-29T04:32:58.222Z,100.00
2018-01-29T04:34:02.963Z,100.00
2018-01-29T04:35:07.762Z,100.00
2018-01-29T04:36:12.930Z,100.00
2018-01-29T04:37:17.692Z,100.00
2018-01-29T04:38:22.477Z,100.00
2018-01-29T04:39:27.226Z,100.00
2018-01-29T04:40:31.968Z,100.00
2018-01-29T04:41:36.641Z,100.00
2018-01-29T04:42:41.825Z,100.00
2018-01-29T04:43:46.931Z,100.00
2018-01-29T04:44:51.846Z,100.00
2018-01-29T04:45:56.897Z,100.00
2018-01-29T04:47:01.825Z,100.00
2018-01-29T04:48:06.618Z,100.00
2018-01-29T04:49:11.739Z,100.00
2018-01-29T04:50:16.538Z,100.00
2018-01-29T04:51:21.280Z,100.00
2018-01-29T04:52:26.014Z,100.00
2018-01-29T04:53:30.891Z,100.00
2018-01-29T04:54:35.653Z,100.00
2018-01-29T04:55:40.890Z,100.00
2018-01-29T04:56:45.619Z,100.00
2018-01-29T04:57:50.399Z,100.00
2018-01-29T04:58:55.154Z,100.00
2018-01-29T04:59:59.912Z,100.00
2018-01-29T05:01:04.679Z,100.00
2018-01-29T05:02:09.377Z,100.00
2018-01-29T05:03:14.091Z,100.00
2018-01-29T05:04:18.839Z,100.00
2018-01-29T05:05:23.564Z,100.00
2018-01-29T05:06:28.276Z,100.00
2018-01-29T05:07:33.308Z,100.00
2018-01-29T05:08:38.027Z,100.00
2018-01-29T05:09:42.747Z,100.00
2018-01-29T05:10:47.469Z,100.00
2018-01-29T05:11:52.205Z,100.00
2018-01-29T05:12:56.937Z,100.00
2018-01-29T05:14:02.099Z,100.00
2018-01-29T05:15:06.848Z,100.00
2018-01-29T05:16:11.581Z,100.00
2018-01-29T05:17:16.394Z,100.00
2018-01-29T05:18:21.133Z,100.00
2018-01-29T05:19:25.856Z,100.00
2018-01-29T05:20:31.022Z,100.00
2018-01-29T05:21:35.798Z,100.00
2018-01-29T05:22:40.518Z,100.00
2018-01-29T05:23:45.258Z,100.00
2018-01-29T05:24:50.120Z,100.00
2018-01-29T05:25:54.886Z,100.00
2018-01-29T05:27:00.085Z,100.00
2018-01-29T05:28:04.834Z,100.00
2018-01-29T05:29:09.595Z,100.00
2018-01-29T05:30:14.391Z,100.00
2018-01-29T05:31:19.155Z,100.00
2018-01-29T05:32:23.889Z,100.00
2018-01-29T05:33:29.042Z,100.00
2018-01-29T05:34:33.987Z,100.00
2018-01-29T05:35:38.927Z,100.00
2018-01-29T05:36:43.814Z,100.00
2018-01-29T05:37:48.779Z,100.00
2018-01-29T05:38:53.816Z,100.00
2018-01-29T05:39:58.997Z,100.00
2018-01-29T05:41:03.853Z,100.00
2018-01-29T05:42:08.568Z,100.00
2018-01-29T05:43:13.258Z,100.00
2018-01-29T05:44:18.105Z,100.00
2018-01-29T05:45:23.326Z,100.00
2018-01-29T05:46:27.846Z,100.00
2018-01-29T05:47:32.401Z,100.00
2018-01-29T05:48:37.045Z,100.00
2018-01-29T05:49:41.691Z,100.00
2018-01-29T05:50:46.681Z,100.00
2018-01-29T05:51:51.567Z,100.00
2018-01-29T05:52:56.599Z,100.00
2018-01-29T05:54:01.342Z,100.00
2018-01-29T05:55:06.145Z,100.00
2018-01-29T05:56:10.901Z,100.00
2018-01-29T05:57:15.816Z,100.00
2018-01-29T05:58:20.974Z,100.00
2018-01-29T05:59:25.766Z,100.00
2018-01-29T06:00:30.621Z,100.00
2018-01-29T06:01:35.369Z,100.00
2018-01-29T06:02:40.141Z,100.00
2018-01-29T06:03:44.878Z,100.00
2018-01-29T06:04:50.085Z,100.00
2018-01-29T06:05:54.827Z,100.00
2018-01-29T06:06:59.583Z,100.00
2018-01-29T06:08:04.329Z,100.00
2018-01-29T06:09:09.085Z,100.00
2018-01-29T06:10:13.867Z,100.00
2018-01-29T06:11:18.944Z,100.00
2018-01-29T06:12:23.765Z,100.00
2018-01-29T06:13:28.816Z,100.00
2018-01-29T06:14:33.557Z,100.00
2018-01-29T06:15:38.297Z,100.00
2018-01-29T06:16:43.043Z,100.00
2018-01-29T06:17:48.214Z,100.00
2018-01-29T06:18:53.007Z,100.00
2018-01-29T06:19:57.861Z,100.00
2018-01-29T06:21:02.743Z,100.00
2018-01-29T06:22:07.607Z,100.00
2018-01-29T06:23:12.208Z,100.00
2018-01-29T06:24:17.040Z,100.00
2018-01-29T06:25:21.654Z,100.00
2018-01-29T06:26:26.271Z,100.00
2018-01-29T06:27:31.142Z,100.00
2018-01-29T06:28:35.973Z,100.00
2018-01-29T06:29:40.770Z,100.00
2018-01-29T06:30:46.143Z,100.00
2018-01-29T06:31:51.018Z,100.00
2018-01-29T06:32:55.783Z,100.00
2018-01-29T06:34:00.558Z,100.00
2018-01-29T06:35:05.335Z,100.00
2018-01-29T06:36:10.222Z,100.00
2018-01-29T06:37:15.462Z,100.00
2018-01-29T06:38:20.342Z,100.00
2018-01-29T06:39:25.248Z,100.00
2018-01-29T06:40:30.138Z,100.00
2018-01-29T06:41:34.977Z,100.00
2018-01-29T06:42:40.782Z,100.00
2018-01-29T06:43:46.089Z,100.00
2018-01-29T06:44:51.001Z,100.00
2018-01-29T06:45:55.825Z,100.00
2018-01-29T06:47:00.581Z,100.00
2018-01-29T06:48:05.322Z,100.00
2018-01-29T06:49:10.062Z,100.00
2018-01-29T06:50:15.124Z,100.00
2018-01-29T06:51:19.911Z,100.00
2018-01-29T06:52:24.722Z,100.00
2018-01-29T06:53:29.636Z,100.00
2018-01-29T06:54:34.387Z,100.00
2018-01-29T06:55:39.195Z,100.00
2018-01-29T06:56:44.312Z,100.00
2018-01-29T06:57:49.126Z,100.00
2018-01-29T06:58:53.932Z,100.00
2018-01-29T06:59:58.762Z,100.00
2018-01-29T07:01:03.490Z,100.00
2018-01-29T07:02:08.294Z,100.00
2018-01-29T07:03:13.317Z,100.00
2018-01-29T07:04:18.093Z,100.00
2018-01-29T07:05:22.860Z,100.00
2018-01-29T07:06:27.969Z,100.00
2018-01-29T07:07:32.917Z,100.00
2018-01-29T07:08:37.678Z,100.00
2018-01-29T07:09:42.424Z,100.00
2018-01-29T07:10:47.181Z,100.00
2018-01-29T07:11:52.003Z,100.00
2018-01-29T07:12:58.461Z,100.00
2018-01-29T07:14:03.235Z,100.00
2018-01-29T07:15:08.369Z,100.00
2018-01-29T07:16:13.134Z,100.00
2018-01-29T07:17:17.923Z,100.00
2018-01-29T07:18:22.725Z,100.00
2018-01-29T07:19:27.526Z,100.00
2018-01-29T07:20:32.347Z,100.00
2018-01-29T07:21:37.572Z,100.00
2018-01-29T07:22:42.363Z,100.00
2018-01-29T07:23:47.189Z,100.00
2018-01-29T07:24:52.061Z,100.00
2018-01-29T07:25:56.662Z,100.00
2018-01-29T07:27:01.402Z,100.00
2018-01-29T07:28:07.279Z,100.00
2018-01-29T07:29:12.488Z,100.00
2018-01-29T07:30:17.408Z,100.00
2018-01-29T07:31:22.186Z,100.00
2018-01-29T07:32:26.935Z,100.00
2018-01-29T07:33:31.716Z,100.00
2018-01-29T07:34:36.947Z,100.00
2018-01-29T07:35:41.760Z,100.00
2018-01-29T07:36:46.542Z,100.00
2018-01-29T07:37:51.310Z,100.00
2018-01-29T07:38:56.355Z,100.00
2018-01-29T07:40:01.108Z,100.00
2018-01-29T07:41:06.159Z,100.00
2018-01-29T07:42:10.901Z,100.00
2018-01-29T07:43:15.693Z,100.00
2018-01-29T07:44:20.440Z,100.00
2018-01-29T07:45:25.066Z,100.00
2018-01-29T07:46:29.673Z,100.00
2018-01-29T07:47:34.612Z,100.00
2018-01-29T07:48:39.236Z,100.00
2018-01-29T07:49:43.837Z,100.00
2018-01-29T07:50:48.439Z,100.00
2018-01-29T07:51:53.178Z,100.00
2018-01-29T07:52:57.946Z,100.00
2018-01-29T07:54:03.282Z,100.00
2018-01-29T07:55:08.055Z,100.00
2018-01-29T07:56:12.750Z,100.00
2018-01-29T07:57:17.568Z,100.00
2018-01-29T07:58:22.352Z,100.00
2018-01-29T07:59:28.119Z,100.00
2018-01-29T08:00:33.131Z,100.00
2018-01-29T08:01:37.948Z,100.00
2018-01-29T08:02:43.624Z,100.00
2018-01-29T08:03:48.430Z,100.00
2018-01-29T08:04:53.271Z,100.00
2018-01-29T08:05:58.030Z,100.00
2018-01-29T08:07:03.217Z,100.00
2018-01-29T08:08:07.963Z,100.00
2018-01-29T08:09:12.673Z,100.00
2018-01-29T08:10:17.417Z,100.00
2018-01-29T08:11:22.180Z,100.00
2018-01-29T08:12:27.625Z,100.00
2018-01-29T08:13:32.927Z,100.00
2018-01-29T08:14:37.635Z,100.00
2018-01-29T08:15:42.410Z,100.00
2018-01-29T08:16:47.182Z,100.00
2018-01-29T08:17:51.892Z,100.00
2018-01-29T08:18:56.659Z,100.00
2018-01-29T08:20:01.763Z,100.00
2018-01-29T08:21:06.618Z,100.00
2018-01-29T08:22:11.351Z,100.00
2018-01-29T08:23:16.089Z,100.00
2018-01-29T08:24:20.882Z,100.00
2018-01-29T08:25:25.670Z,100.00
2018-01-29T08:26:30.832Z,100.00
2018-01-29T08:27:35.591Z,100.00
2018-01-29T08:28:40.354Z,100.00
2018-01-29T08:29:45.071Z,100.00
2018-01-29T08:30:49.857Z,100.00
2018-01-29T08:31:54.699Z,100.00
2018-01-29T08:32:59.849Z,100.00
2018-01-29T08:34:04.610Z,100.00
2018-01-29T08:35:09.363Z,100.00
2018-01-29T08:36:14.164Z,100.00
2018-01-29T08:37:19.061Z,100.00
2018-01-29T08:38:24.253Z,100.00
2018-01-29T08:39:30.374Z,100.00
2018-01-29T08:40:35.201Z,100.00
2018-01-29T08:41:39.968Z,100.00
2018-01-29T08:42:44.732Z,100.00
2018-01-29T08:43:49.520Z,100.00
2018-01-29T08:44:54.426Z,100.00
2018-01-29T08:46:00.169Z,100.00
2018-01-29T08:47:04.906Z,100.00
2018-01-29T08:48:09.666Z,100.00
2018-01-29T08:49:14.457Z,100.00
2018-01-29T08:50:19.239Z,100.00
2018-01-29T08:51:24.002Z,100.00
2018-01-29T08:52:29.125Z,100.00
2018-01-29T08:53:33.910Z,100.00
2018-01-29T08:54:38.672Z,100.00
2018-01-29T08:55:43.558Z,100.00
2018-01-29T08:56:48.408Z,100.00
2018-01-29T08:57:53.019Z,100.00
2018-01-29T08:58:58.037Z,100.00
2018-01-29T09:00:03.429Z,100.00
2018-01-29T09:01:08.049Z,100.00
2018-01-29T09:02:12.646Z,100.00
2018-01-29T09:03:17.413Z,100.00
2018-01-29T09:04:22.034Z,100.00
2018-01-29T09:05:27.140Z,100.00
2018-01-29T09:06:31.820Z,100.00
2018-01-29T09:07:36.605Z,100.00
2018-01-29T09:08:41.394Z,100.00
2018-01-29T09:09:46.259Z,100.00
2018-01-29T09:10:51.277Z,100.00
2018-01-29T09:11:56.411Z,100.00
2018-01-29T09:13:01.196Z,100.00
2018-01-29T09:14:05.870Z,100.00
2018-01-29T09:15:10.616Z,100.00
2018-01-29T09:16:15.260Z,100.00
2018-01-29T09:17:19.970Z,100.00
2018-01-29T09:18:25.159Z,100.00
2018-01-29T09:19:29.863Z,100.00
2018-01-29T09:20:34.820Z,100.00
2018-01-29T09:21:39.494Z,100.00
2018-01-29T09:22:44.250Z,100.00
2018-01-29T09:23:49.017Z,100.00
2018-01-29T09:24:54.086Z,100.00
2018-01-29T09:25:58.807Z,100.00
2018-01-29T09:27:03.542Z,100.00
2018-01-29T09:28:08.323Z,100.00
2018-01-29T09:29:13.110Z,100.00
2018-01-29T09:30:17.923Z,100.00
2018-01-29T09:31:23.015Z,100.00
2018-01-29T09:32:27.767Z,100.00
2018-01-29T09:33:32.599Z,100.00
2018-01-29T09:34:37.460Z,100.00
2018-01-29T09:35:42.240Z,100.00
2018-01-29T09:36:47.034Z,100.00
2018-01-29T09:37:51.985Z,100.00
2018-01-29T09:38:56.664Z,100.00
2018-01-29T09:40:01.354Z,100.00
2018-01-29T09:41:06.146Z,100.00
2018-01-29T09:42:10.952Z,100.00
2018-01-29T09:43:15.807Z,100.00
2018-01-29T09:44:21.099Z,100.00
2018-01-29T09:45:25.899Z,100.00
2018-01-29T09:46:30.693Z,100.00
2018-01-29T09:47:35.587Z,100.00
2018-01-29T09:48:40.631Z,100.00
2018-01-29T09:49:45.586Z,100.00
2018-01-29T09:50:50.826Z,100.00
2018-01-29T09:51:55.646Z,100.00
2018-01-29T09:53:00.582Z,100.00
2018-01-29T09:54:05.406Z,100.00
2018-01-29T09:55:10.187Z,100.00
2018-01-29T09:56:15.002Z,100.00
2018-01-29T09:57:20.940Z,100.00
2018-01-29T09:58:25.897Z,100.00
2018-01-29T09:59:30.817Z,100.00
2018-01-29T10:00:35.704Z,100.00
2018-01-29T10:01:40.531Z,100.00
2018-01-29T10:02:45.433Z,100.00
2018-01-29T10:03:50.555Z,100.00
2018-01-29T10:04:55.321Z,100.00
2018-01-29T10:06:00.146Z,100.00
2018-01-29T10:07:05.015Z,100.00
2018-01-29T10:08:09.791Z,100.00
2018-01-29T10:09:14.696Z,100.00
2018-01-29T10:10:19.471Z,100.00
2018-01-29T10:11:24.239Z,100.00
2018-01-29T10:12:29.094Z,100.00
2018-01-29T10:13:33.855Z,100.00
2018-01-29T10:14:38.660Z,100.00
2018-01-29T10:15:43.761Z,100.00
2018-01-29T10:16:48.497Z,100.00
2018-01-29T10:17:53.294Z,100.00
2018-01-29T10:18:58.129Z,100.00
2018-01-29T10:20:02.934Z,100.00
2018-01-29T10:21:07.702Z,100.00
2018-01-29T10:22:12.846Z,100.00
2018-01-29T10:23:17.697Z,100.00
2018-01-29T10:24:22.475Z,100.00
2018-01-29T10:25:27.369Z,100.00
2018-01-29T10:30:44.235Z,100.00
2018-01-29T10:34:41.574Z,100.00
2018-01-29T10:36:02.574Z,100.00
2018-01-29T10:45:26.637Z,99.48
2018-01-29T10:49:53.885Z,99.18
2018-01-29T10:52:57.943Z,99.19
2018-01-29T10:58:57.030Z,98.91
2018-01-29T11:00:18.104Z,98.85
2018-01-29T11:01:52.624Z,98.87
2018-01-29T11:03:07.388Z,98.89
2018-01-29T11:09:45.621Z,98.70
2018-01-29T11:10:59.553Z,98.47
2018-01-29T11:13:55.354Z,98.30
2018-01-29T11:15:56.505Z,98.19
2018-01-29T11:21:36.025Z,97.82
2018-01-29T11:22:51.455Z,97.88
2018-01-29T11:36:57.869Z,97.41
2018-01-29T11:38:17.365Z,97.10
2018-01-29T11:41:18.131Z,96.96
2018-01-29T11:43:07.146Z,97.04
2018-01-29T11:44:17.983Z,96.98
2018-01-29T11:48:35.442Z,96.76
2018-01-29T11:50:04.619Z,96.60
2018-01-29T11:55:48.663Z,96.44
2018-01-29T11:57:26.076Z,96.44
2018-01-29T12:02:53.363Z,96.22
2018-01-29T12:04:15.803Z,96.16
2018-01-29T12:08:17.694Z,95.58
2018-01-29T12:13:35.520Z,95.47
2018-01-29T12:15:16.517Z,95.35
2018-01-29T12:19:23.593Z,94.94
2018-01-29T12:25:09.363Z,94.54
2018-01-29T12:26:24.039Z,94.43
2018-01-29T12:27:37.754Z,94.31
2018-01-29T12:29:00.623Z,94.34
2018-01-29T12:40:29.543Z,93.68
2018-01-29T12:46:41.519Z,93.55
2018-01-29T12:47:57.022Z,93.02
2018-01-29T12:49:19.837Z,92.97
2018-01-29T12:50:36.578Z,92.80
2018-01-29T12:53:10.501Z,92.71
2018-01-29T12:55:56.219Z,92.55
2018-01-29T12:57:32.071Z,92.15
2018-01-29T13:08:46.307Z,91.97
2018-01-29T13:13:05.962Z,91.57
2018-01-29T13:14:25.547Z,91.52
2018-01-29T13:16:53.471Z,91.50
2018-01-29T13:18:06.022Z,91.55
2018-01-29T13:24:30.210Z,91.60
2018-01-29T13:25:48.611Z,91.28
2018-01-29T13:28:36.105Z,91.38
2018-01-29T13:29:55.261Z,91.42
2018-01-29T13:33:58.155Z,91.41
2018-01-29T13:35:19.569Z,91.41
2018-01-29T13:45:16.476Z,91.38
2018-01-29T13:46:33.672Z,91.31
2018-01-29T13:51:05.990Z,91.05
2018-01-29T14:05:11.679Z,90.10
2018-01-29T14:06:37.505Z,90.05
2018-01-29T14:07:56.541Z,89.78
2018-01-29T14:45:13.765Z,87.39
2018-01-29T14:48:02.986Z,87.28
2018-01-29T14:49:20.258Z,87.29
2018-01-29T14:50:40.819Z,87.30
2018-01-29T14:51:53.753Z,87.23
2018-01-29T14:53:14.778Z,87.30
2018-01-29T14:59:38.485Z,87.35
2018-01-29T15:08:38.718Z,87.17
2018-01-29T15:12:16.524Z,87.16
2018-01-29T15:17:40.531Z,87.49
2018-01-29T19:55:58.468Z,100.00
2018-01-29T19:58:37.989Z,100.00
2018-01-29T21:24:47.229Z,100.00
2018-01-29T21:26:22.230Z,100.00
2018-01-29T21:29:38.024Z,100.00
2018-01-29T21:32:30.487Z,100.00
2018-01-29T21:35:45.855Z,100.00
2018-01-29T21:54:23.082Z,100.00
2018-01-29T22:03:11.716Z,100.00
2018-01-29T22:08:02.127Z,100.00
2018-01-29T22:10:36.080Z,100.00
2018-01-29T22:18:14.787Z,99.64
2018-01-29T22:20:44.704Z,99.24
2018-01-29T22:26:09.276Z,99.14
2018-01-29T22:31:59.293Z,98.41
2018-01-29T22:33:10.400Z,98.30
2018-01-29T22:37:35.100Z,98.21
2018-01-29T22:46:54.952Z,98.05
2018-01-29T23:11:18.866Z,97.65
2018-01-29T23:31:56.933Z,97.92
2018-01-29T23:42:13.230Z,97.74
2018-01-29T23:56:07.212Z,97.78
